sensor_id;sensor_type;location;lat;lon;timestamp;P1;durP1;ratioP1;P2;durP2;ratioP2
20721;SDS011;10522;52.198;9.890;2022-12-18T00:00:53;10.67;;;5.87;;
20721;SDS011;10522;52.198;9.890;2022-12-18T00:03:18;13.27;;;7.17;;
20721;SDS011;10522;52.198;9.890;2022-12-18T00:05:48;9.23;;;5.17;;
20721;SDS011;10522;52.198;9.890;2022-12-18T00:08:14;13.83;;;6.37;;
20721;SDS011;10522;52.198;9.890;2022-12-18T00:10:41;15.60;;;6.63;;
20721;SDS011;10522;52.198;9.890;2022-12-18T00:13:07;14.10;;;6.73;;
20721;SDS011;10522;52.198;9.890;2022-12-18T00:15:33;10.63;;;6.27;;
20721;SDS011;10522;52.198;9.890;2022-12-18T00:17:59;9.70;;;5.47;;
20721;SDS011;10522;52.198;9.890;2022-12-18T00:20:25;15.03;;;6.50;;
20721;SDS011;10522;52.198;9.890;2022-12-18T00:22:54;13.40;;;6.70;;
20721;SDS011;10522;52.198;9.890;2022-12-18T00:25:20;19.60;;;7.80;;
20721;SDS011;10522;52.198;9.890;2022-12-18T00:27:46;15.87;;;7.37;;
20721;SDS011;10522;52.198;9.890;2022-12-18T00:30:13;16.03;;;8.10;;
20721;SDS011;10522;52.198;9.890;2022-12-18T00:32:38;17.93;;;8.10;;
20721;SDS011;10522;52.198;9.890;2022-12-18T00:35:04;16.27;;;7.13;;
20721;SDS011;10522;52.198;9.890;2022-12-18T00:37:31;17.30;;;7.70;;
20721;SDS011;10522;52.198;9.890;2022-12-18T00:39:58;15.17;;;7.07;;
20721;SDS011;10522;52.198;9.890;2022-12-18T00:42:24;18.30;;;8.47;;
20721;SDS011;10522;52.198;9.890;2022-12-18T00:45:08;17.87;;;7.80;;
20721;SDS011;10522;52.198;9.890;2022-12-18T00:47:33;18.67;;;8.37;;
20721;SDS011;10522;52.198;9.890;2022-12-18T00:49:59;16.27;;;8.03;;
20721;SDS011;10522;52.198;9.890;2022-12-18T00:52:25;17.87;;;8.43;;
20721;SDS011;10522;52.198;9.890;2022-12-18T00:54:50;17.40;;;8.00;;
20721;SDS011;10522;52.198;9.890;2022-12-18T00:57:16;16.10;;;7.90;;
20721;SDS011;10522;52.198;9.890;2022-12-18T00:59:41;15.37;;;9.13;;
20721;SDS011;10522;52.198;9.890;2022-12-18T01:02:07;12.97;;;7.33;;
20721;SDS011;10522;52.198;9.890;2022-12-18T01:04:33;14.53;;;7.53;;
20721;SDS011;10522;52.198;9.890;2022-12-18T01:06:59;17.27;;;8.23;;
20721;SDS011;10522;52.198;9.890;2022-12-18T01:09:24;19.77;;;8.47;;
20721;SDS011;10522;52.198;9.890;2022-12-18T01:11:51;17.23;;;7.50;;
20721;SDS011;10522;52.198;9.890;2022-12-18T01:14:16;17.40;;;7.47;;
20721;SDS011;10522;52.198;9.890;2022-12-18T01:16:42;21.80;;;8.83;;
20721;SDS011;10522;52.198;9.890;2022-12-18T01:19:07;16.50;;;8.90;;
20721;SDS011;10522;52.198;9.890;2022-12-18T01:21:33;16.50;;;8.07;;
20721;SDS011;10522;52.198;9.890;2022-12-18T01:23:59;17.03;;;6.97;;
20721;SDS011;10522;52.198;9.890;2022-12-18T01:26:25;12.80;;;7.97;;
20721;SDS011;10522;52.198;9.890;2022-12-18T01:28:53;17.03;;;8.33;;
20721;SDS011;10522;52.198;9.890;2022-12-18T01:31:21;16.13;;;7.83;;
20721;SDS011;10522;52.198;9.890;2022-12-18T01:33:48;16.90;;;8.47;;
20721;SDS011;10522;52.198;9.890;2022-12-18T01:36:25;14.43;;;7.40;;
20721;SDS011;10522;52.198;9.890;2022-12-18T01:38:53;9.37;;;6.57;;
20721;SDS011;10522;52.198;9.890;2022-12-18T01:41:23;16.60;;;6.77;;
20721;SDS011;10522;52.198;9.890;2022-12-18T01:43:53;19.13;;;7.50;;
20721;SDS011;10522;52.198;9.890;2022-12-18T01:46:21;10.80;;;6.00;;
20721;SDS011;10522;52.198;9.890;2022-12-18T01:48:48;13.90;;;6.67;;
20721;SDS011;10522;52.198;9.890;2022-12-18T01:51:20;14.27;;;6.70;;
20721;SDS011;10522;52.198;9.890;2022-12-18T01:53:47;13.03;;;6.43;;
20721;SDS011;10522;52.198;9.890;2022-12-18T01:56:18;16.40;;;7.33;;
20721;SDS011;10522;52.198;9.890;2022-12-18T01:58:47;12.70;;;6.90;;
20721;SDS011;10522;52.198;9.890;2022-12-18T02:01:25;14.67;;;6.93;;
20721;SDS011;10522;52.198;9.890;2022-12-18T02:03:51;16.73;;;6.43;;
20721;SDS011;10522;52.198;9.890;2022-12-18T02:06:20;17.17;;;7.17;;
20721;SDS011;10522;52.198;9.890;2022-12-18T02:11:22;11.90;;;6.33;;
20721;SDS011;10522;52.198;9.890;2022-12-18T02:16:25;16.37;;;6.90;;
20721;SDS011;10522;52.198;9.890;2022-12-18T02:18:56;15.93;;;6.97;;
20721;SDS011;10522;52.198;9.890;2022-12-18T02:21:28;15.97;;;7.47;;
20721;SDS011;10522;52.198;9.890;2022-12-18T02:27:02;9.43;;;5.50;;
20721;SDS011;10522;52.198;9.890;2022-12-18T02:29:32;15.43;;;6.90;;
20721;SDS011;10522;52.198;9.890;2022-12-18T02:32:10;12.70;;;6.30;;
20721;SDS011;10522;52.198;9.890;2022-12-18T02:34:40;13.20;;;6.87;;
20721;SDS011;10522;52.198;9.890;2022-12-18T02:37:12;15.93;;;6.33;;
20721;SDS011;10522;52.198;9.890;2022-12-18T02:39:41;9.70;;;5.77;;
20721;SDS011;10522;52.198;9.890;2022-12-18T02:42:09;11.97;;;6.13;;
20721;SDS011;10522;52.198;9.890;2022-12-18T02:44:47;14.43;;;6.70;;
20721;SDS011;10522;52.198;9.890;2022-12-18T02:47:15;13.73;;;7.07;;
20721;SDS011;10522;52.198;9.890;2022-12-18T02:57:53;16.40;;;7.50;;
20721;SDS011;10522;52.198;9.890;2022-12-18T03:00:41;11.67;;;6.60;;
20721;SDS011;10522;52.198;9.890;2022-12-18T03:03:15;16.23;;;7.37;;
20721;SDS011;10522;52.198;9.890;2022-12-18T03:05:56;9.37;;;5.93;;
20721;SDS011;10522;52.198;9.890;2022-12-18T03:08:31;17.97;;;7.07;;
20721;SDS011;10522;52.198;9.890;2022-12-18T03:11:04;16.03;;;7.07;;
20721;SDS011;10522;52.198;9.890;2022-12-18T03:13:40;10.57;;;5.67;;
20721;SDS011;10522;52.198;9.890;2022-12-18T03:16:09;14.30;;;6.43;;
20721;SDS011;10522;52.198;9.890;2022-12-18T03:18:41;14.33;;;6.60;;
20721;SDS011;10522;52.198;9.890;2022-12-18T03:21:08;11.83;;;5.90;;
20721;SDS011;10522;52.198;9.890;2022-12-18T03:23:43;13.43;;;6.10;;
20721;SDS011;10522;52.198;9.890;2022-12-18T03:26:13;14.53;;;6.57;;
20721;SDS011;10522;52.198;9.890;2022-12-18T03:28:46;12.10;;;6.03;;
20721;SDS011;10522;52.198;9.890;2022-12-18T03:31:17;10.07;;;4.87;;
20721;SDS011;10522;52.198;9.890;2022-12-18T03:33:47;13.60;;;6.40;;
20721;SDS011;10522;52.198;9.890;2022-12-18T03:36:18;14.77;;;6.63;;
20721;SDS011;10522;52.198;9.890;2022-12-18T03:38:44;10.97;;;5.47;;
20721;SDS011;10522;52.198;9.890;2022-12-18T03:46:18;9.43;;;4.87;;
20721;SDS011;10522;52.198;9.890;2022-12-18T03:48:58;10.10;;;5.47;;
20721;SDS011;10522;52.198;9.890;2022-12-18T03:54:01;10.90;;;5.13;;
20721;SDS011;10522;52.198;9.890;2022-12-18T03:56:31;8.93;;;5.17;;
20721;SDS011;10522;52.198;9.890;2022-12-18T03:59:02;8.90;;;4.93;;
20721;SDS011;10522;52.198;9.890;2022-12-18T04:01:37;12.27;;;5.37;;
20721;SDS011;10522;52.198;9.890;2022-12-18T04:04:05;11.67;;;6.10;;
20721;SDS011;10522;52.198;9.890;2022-12-18T04:06:33;11.50;;;5.20;;
20721;SDS011;10522;52.198;9.890;2022-12-18T04:08:59;9.47;;;5.10;;
20721;SDS011;10522;52.198;9.890;2022-12-18T04:11:25;11.17;;;4.80;;
20721;SDS011;10522;52.198;9.890;2022-12-18T04:13:53;10.70;;;4.77;;
20721;SDS011;10522;52.198;9.890;2022-12-18T04:16:22;10.77;;;4.93;;
20721;SDS011;10522;52.198;9.890;2022-12-18T04:18:48;14.93;;;4.67;;
20721;SDS011;10522;52.198;9.890;2022-12-18T04:21:14;10.67;;;5.43;;
20721;SDS011;10522;52.198;9.890;2022-12-18T04:23:39;11.43;;;5.70;;
20721;SDS011;10522;52.198;9.890;2022-12-18T04:26:05;12.07;;;5.90;;
20721;SDS011;10522;52.198;9.890;2022-12-18T04:28:30;11.30;;;5.73;;
20721;SDS011;10522;52.198;9.890;2022-12-18T04:30:56;14.63;;;6.80;;
20721;SDS011;10522;52.198;9.890;2022-12-18T04:33:22;12.03;;;5.93;;
20721;SDS011;10522;52.198;9.890;2022-12-18T04:35:47;11.20;;;5.73;;
20721;SDS011;10522;52.198;9.890;2022-12-18T04:38:13;12.07;;;6.57;;
20721;SDS011;10522;52.198;9.890;2022-12-18T04:40:38;12.57;;;5.13;;
20721;SDS011;10522;52.198;9.890;2022-12-18T04:43:04;15.50;;;6.20;;
20721;SDS011;10522;52.198;9.890;2022-12-18T04:45:30;10.73;;;6.17;;
20721;SDS011;10522;52.198;9.890;2022-12-18T04:47:57;11.37;;;5.83;;
20721;SDS011;10522;52.198;9.890;2022-12-18T04:50:23;14.90;;;6.53;;
20721;SDS011;10522;52.198;9.890;2022-12-18T04:52:49;12.17;;;6.33;;
20721;SDS011;10522;52.198;9.890;2022-12-18T04:55:15;12.30;;;5.03;;
20721;SDS011;10522;52.198;9.890;2022-12-18T04:57:40;13.90;;;5.83;;
20721;SDS011;10522;52.198;9.890;2022-12-18T05:00:06;11.17;;;5.67;;
20721;SDS011;10522;52.198;9.890;2022-12-18T05:02:32;10.23;;;5.37;;
20721;SDS011;10522;52.198;9.890;2022-12-18T05:04:58;11.90;;;5.67;;
20721;SDS011;10522;52.198;9.890;2022-12-18T05:07:24;11.10;;;5.63;;
20721;SDS011;10522;52.198;9.890;2022-12-18T05:09:49;7.67;;;4.93;;
20721;SDS011;10522;52.198;9.890;2022-12-18T05:12:15;10.87;;;5.33;;
20721;SDS011;10522;52.198;9.890;2022-12-18T05:14:41;8.90;;;4.43;;
20721;SDS011;10522;52.198;9.890;2022-12-18T05:17:06;10.07;;;4.10;;
20721;SDS011;10522;52.198;9.890;2022-12-18T05:19:32;12.23;;;4.27;;
20721;SDS011;10522;52.198;9.890;2022-12-18T05:21:57;8.23;;;4.27;;
20721;SDS011;10522;52.198;9.890;2022-12-18T05:24:23;5.93;;;3.87;;
20721;SDS011;10522;52.198;9.890;2022-12-18T05:26:49;7.37;;;4.27;;
20721;SDS011;10522;52.198;9.890;2022-12-18T05:29:14;7.60;;;3.80;;
20721;SDS011;10522;52.198;9.890;2022-12-18T05:31:40;7.60;;;4.30;;
20721;SDS011;10522;52.198;9.890;2022-12-18T05:34:06;6.23;;;3.47;;
20721;SDS011;10522;52.198;9.890;2022-12-18T05:36:32;9.17;;;4.70;;
20721;SDS011;10522;52.198;9.890;2022-12-18T05:38:57;10.50;;;4.30;;
20721;SDS011;10522;52.198;9.890;2022-12-18T05:41:23;12.03;;;3.97;;
20721;SDS011;10522;52.198;9.890;2022-12-18T05:43:48;8.67;;;4.07;;
20721;SDS011;10522;52.198;9.890;2022-12-18T05:46:15;7.80;;;4.23;;
20721;SDS011;10522;52.198;9.890;2022-12-18T05:48:43;6.97;;;3.73;;
20721;SDS011;10522;52.198;9.890;2022-12-18T05:51:10;7.90;;;4.33;;
20721;SDS011;10522;52.198;9.890;2022-12-18T05:53:38;11.37;;;4.50;;
20721;SDS011;10522;52.198;9.890;2022-12-18T05:56:04;12.20;;;4.47;;
20721;SDS011;10522;52.198;9.890;2022-12-18T05:58:32;8.57;;;4.37;;
20721;SDS011;10522;52.198;9.890;2022-12-18T06:01:05;8.13;;;4.07;;
20721;SDS011;10522;52.198;9.890;2022-12-18T06:03:33;5.70;;;3.60;;
20721;SDS011;10522;52.198;9.890;2022-12-18T06:05:58;6.73;;;3.80;;
20721;SDS011;10522;52.198;9.890;2022-12-18T06:08:24;5.60;;;3.73;;
20721;SDS011;10522;52.198;9.890;2022-12-18T06:10:50;6.87;;;3.90;;
20721;SDS011;10522;52.198;9.890;2022-12-18T06:13:17;14.40;;;4.03;;
20721;SDS011;10522;52.198;9.890;2022-12-18T06:15:44;12.40;;;4.90;;
20721;SDS011;10522;52.198;9.890;2022-12-18T06:18:09;7.77;;;3.60;;
20721;SDS011;10522;52.198;9.890;2022-12-18T06:20:35;11.73;;;5.10;;
20721;SDS011;10522;52.198;9.890;2022-12-18T06:23:02;6.77;;;3.83;;
20721;SDS011;10522;52.198;9.890;2022-12-18T06:25:27;7.83;;;4.10;;
20721;SDS011;10522;52.198;9.890;2022-12-18T06:27:53;9.40;;;4.37;;
20721;SDS011;10522;52.198;9.890;2022-12-18T06:30:19;5.57;;;4.13;;
20721;SDS011;10522;52.198;9.890;2022-12-18T06:32:45;8.63;;;4.43;;
20721;SDS011;10522;52.198;9.890;2022-12-18T06:35:10;9.00;;;4.00;;
20721;SDS011;10522;52.198;9.890;2022-12-18T06:37:36;14.90;;;5.53;;
20721;SDS011;10522;52.198;9.890;2022-12-18T06:40:02;6.17;;;4.30;;
20721;SDS011;10522;52.198;9.890;2022-12-18T06:42:28;6.90;;;3.37;;
20721;SDS011;10522;52.198;9.890;2022-12-18T06:44:53;6.60;;;3.93;;
20721;SDS011;10522;52.198;9.890;2022-12-18T06:47:19;10.70;;;4.73;;
20721;SDS011;10522;52.198;9.890;2022-12-18T06:49:45;11.30;;;4.80;;
20721;SDS011;10522;52.198;9.890;2022-12-18T06:52:10;9.23;;;4.10;;
20721;SDS011;10522;52.198;9.890;2022-12-18T06:54:36;8.90;;;4.37;;
20721;SDS011;10522;52.198;9.890;2022-12-18T06:57:01;6.90;;;4.07;;
20721;SDS011;10522;52.198;9.890;2022-12-18T06:59:27;7.20;;;4.00;;
20721;SDS011;10522;52.198;9.890;2022-12-18T07:01:53;10.37;;;4.20;;
20721;SDS011;10522;52.198;9.890;2022-12-18T07:04:18;10.03;;;4.63;;
20721;SDS011;10522;52.198;9.890;2022-12-18T07:06:44;10.00;;;4.17;;
20721;SDS011;10522;52.198;9.890;2022-12-18T07:09:09;5.67;;;3.40;;
20721;SDS011;10522;52.198;9.890;2022-12-18T07:11:35;7.93;;;4.23;;
20721;SDS011;10522;52.198;9.890;2022-12-18T07:14:01;9.77;;;4.80;;
20721;SDS011;10522;52.198;9.890;2022-12-18T07:16:27;11.10;;;5.10;;
20721;SDS011;10522;52.198;9.890;2022-12-18T07:18:55;8.67;;;4.17;;
20721;SDS011;10522;52.198;9.890;2022-12-18T07:21:22;11.43;;;4.03;;
20721;SDS011;10522;52.198;9.890;2022-12-18T07:23:49;8.17;;;3.93;;
20721;SDS011;10522;52.198;9.890;2022-12-18T07:26:15;9.97;;;4.10;;
20721;SDS011;10522;52.198;9.890;2022-12-18T07:28:42;9.73;;;4.07;;
20721;SDS011;10522;52.198;9.890;2022-12-18T07:31:13;8.23;;;3.90;;
20721;SDS011;10522;52.198;9.890;2022-12-18T07:33:41;5.50;;;3.33;;
20721;SDS011;10522;52.198;9.890;2022-12-18T07:36:08;7.60;;;4.23;;
20721;SDS011;10522;52.198;9.890;2022-12-18T07:38:35;11.33;;;4.20;;
20721;SDS011;10522;52.198;9.890;2022-12-18T07:41:02;9.77;;;4.00;;
20721;SDS011;10522;52.198;9.890;2022-12-18T07:43:28;8.87;;;4.97;;
20721;SDS011;10522;52.198;9.890;2022-12-18T07:45:54;8.33;;;4.10;;
20721;SDS011;10522;52.198;9.890;2022-12-18T07:48:20;5.80;;;3.37;;
20721;SDS011;10522;52.198;9.890;2022-12-18T07:50:45;11.50;;;4.90;;
20721;SDS011;10522;52.198;9.890;2022-12-18T07:53:11;9.50;;;4.17;;
20721;SDS011;10522;52.198;9.890;2022-12-18T07:55:37;8.83;;;4.00;;
20721;SDS011;10522;52.198;9.890;2022-12-18T07:58:03;10.53;;;4.27;;
20721;SDS011;10522;52.198;9.890;2022-12-18T08:00:29;5.17;;;3.27;;
20721;SDS011;10522;52.198;9.890;2022-12-18T08:02:55;9.33;;;3.63;;
20721;SDS011;10522;52.198;9.890;2022-12-18T08:05:21;7.13;;;3.33;;
20721;SDS011;10522;52.198;9.890;2022-12-18T08:07:47;7.03;;;4.37;;
20721;SDS011;10522;52.198;9.890;2022-12-18T08:10:14;8.10;;;4.37;;
20721;SDS011;10522;52.198;9.890;2022-12-18T08:12:39;6.47;;;4.23;;
20721;SDS011;10522;52.198;9.890;2022-12-18T08:15:05;10.00;;;4.80;;
20721;SDS011;10522;52.198;9.890;2022-12-18T08:17:32;9.83;;;4.10;;
20721;SDS011;10522;52.198;9.890;2022-12-18T08:19:57;9.17;;;4.23;;
20721;SDS011;10522;52.198;9.890;2022-12-18T08:22:23;8.80;;;4.23;;
20721;SDS011;10522;52.198;9.890;2022-12-18T08:24:49;13.27;;;4.57;;
20721;SDS011;10522;52.198;9.890;2022-12-18T08:27:14;8.30;;;5.20;;
20721;SDS011;10522;52.198;9.890;2022-12-18T08:29:40;9.33;;;4.40;;
20721;SDS011;10522;52.198;9.890;2022-12-18T08:32:05;6.97;;;3.93;;
20721;SDS011;10522;52.198;9.890;2022-12-18T08:34:31;7.57;;;3.70;;
20721;SDS011;10522;52.198;9.890;2022-12-18T08:36:57;7.03;;;4.27;;
20721;SDS011;10522;52.198;9.890;2022-12-18T08:39:23;6.53;;;3.80;;
20721;SDS011;10522;52.198;9.890;2022-12-18T08:41:48;9.77;;;4.00;;
20721;SDS011;10522;52.198;9.890;2022-12-18T08:44:34;7.87;;;3.90;;
20721;SDS011;10522;52.198;9.890;2022-12-18T08:47:02;7.47;;;3.93;;
20721;SDS011;10522;52.198;9.890;2022-12-18T08:49:28;9.87;;;4.67;;
20721;SDS011;10522;52.198;9.890;2022-12-18T08:51:54;9.03;;;4.23;;
20721;SDS011;10522;52.198;9.890;2022-12-18T08:54:22;5.27;;;3.53;;
20721;SDS011;10522;52.198;9.890;2022-12-18T08:56:47;8.00;;;3.80;;
20721;SDS011;10522;52.198;9.890;2022-12-18T08:59:14;6.17;;;3.80;;
20721;SDS011;10522;52.198;9.890;2022-12-18T09:01:43;10.03;;;3.83;;
20721;SDS011;10522;52.198;9.890;2022-12-18T09:04:09;6.50;;;3.60;;
20721;SDS011;10522;52.198;9.890;2022-12-18T09:06:35;7.67;;;3.27;;
20721;SDS011;10522;52.198;9.890;2022-12-18T09:09:01;4.93;;;3.30;;
20721;SDS011;10522;52.198;9.890;2022-12-18T09:11:27;5.63;;;3.53;;
20721;SDS011;10522;52.198;9.890;2022-12-18T09:13:54;4.20;;;3.23;;
20721;SDS011;10522;52.198;9.890;2022-12-18T09:16:20;8.10;;;3.40;;
20721;SDS011;10522;52.198;9.890;2022-12-18T09:18:46;7.20;;;3.17;;
20721;SDS011;10522;52.198;9.890;2022-12-18T09:21:17;8.37;;;3.37;;
20721;SDS011;10522;52.198;9.890;2022-12-18T09:23:49;5.63;;;3.10;;
20721;SDS011;10522;52.198;9.890;2022-12-18T09:26:15;6.77;;;2.90;;
20721;SDS011;10522;52.198;9.890;2022-12-18T09:28:41;6.97;;;3.50;;
20721;SDS011;10522;52.198;9.890;2022-12-18T09:31:07;5.50;;;3.17;;
20721;SDS011;10522;52.198;9.890;2022-12-18T09:33:34;5.90;;;2.37;;
20721;SDS011;10522;52.198;9.890;2022-12-18T09:36:02;4.50;;;2.47;;
20721;SDS011;10522;52.198;9.890;2022-12-18T09:38:29;3.97;;;2.43;;
20721;SDS011;10522;52.198;9.890;2022-12-18T09:41:41;7.80;;;2.77;;
20721;SDS011;10522;52.198;9.890;2022-12-18T09:44:00;7.27;;;2.77;;
20721;SDS011;10522;52.198;9.890;2022-12-18T09:46:37;11.07;;;4.27;;
20721;SDS011;10522;52.198;9.890;2022-12-18T09:49:09;7.73;;;3.73;;
20721;SDS011;10522;52.198;9.890;2022-12-18T09:51:41;7.87;;;4.97;;
20721;SDS011;10522;52.198;9.890;2022-12-18T09:54:13;8.77;;;3.57;;
20721;SDS011;10522;52.198;9.890;2022-12-18T09:56:47;8.10;;;3.50;;
20721;SDS011;10522;52.198;9.890;2022-12-18T10:02:05;5.00;;;3.10;;
20721;SDS011;10522;52.198;9.890;2022-12-18T10:04:38;5.40;;;2.73;;
20721;SDS011;10522;52.198;9.890;2022-12-18T10:07:08;5.47;;;2.53;;
20721;SDS011;10522;52.198;9.890;2022-12-18T10:12:36;4.43;;;2.40;;
20721;SDS011;10522;52.198;9.890;2022-12-18T10:17:58;5.70;;;2.13;;
20721;SDS011;10522;52.198;9.890;2022-12-18T10:20:46;6.77;;;2.47;;
20721;SDS011;10522;52.198;9.890;2022-12-18T10:23:28;4.83;;;2.63;;
20721;SDS011;10522;52.198;9.890;2022-12-18T10:26:05;3.27;;;2.00;;
20721;SDS011;10522;52.198;9.890;2022-12-18T10:28:34;3.60;;;1.50;;
20721;SDS011;10522;52.198;9.890;2022-12-18T10:31:01;4.67;;;2.07;;
20721;SDS011;10522;52.198;9.890;2022-12-18T10:33:28;4.53;;;2.17;;
20721;SDS011;10522;52.198;9.890;2022-12-18T10:35:56;8.20;;;2.17;;
20721;SDS011;10522;52.198;9.890;2022-12-18T10:38:26;3.50;;;2.37;;
20721;SDS011;10522;52.198;9.890;2022-12-18T10:46:14;5.20;;;2.10;;
20721;SDS011;10522;52.198;9.890;2022-12-18T10:48:51;4.80;;;2.50;;
20721;SDS011;10522;52.198;9.890;2022-12-18T10:51:35;6.07;;;2.70;;
20721;SDS011;10522;52.198;9.890;2022-12-18T10:56:46;4.90;;;2.87;;
20721;SDS011;10522;52.198;9.890;2022-12-18T10:59:16;4.60;;;2.60;;
20721;SDS011;10522;52.198;9.890;2022-12-18T11:11:58;7.23;;;2.67;;
20721;SDS011;10522;52.198;9.890;2022-12-18T11:14:27;6.43;;;2.67;;
20721;SDS011;10522;52.198;9.890;2022-12-18T11:16:56;7.00;;;3.07;;
20721;SDS011;10522;52.198;9.890;2022-12-18T11:25:03;3.67;;;2.20;;
20721;SDS011;10522;52.198;9.890;2022-12-18T11:27:35;3.13;;;2.30;;
20721;SDS011;10522;52.198;9.890;2022-12-18T11:30:07;4.03;;;1.93;;
20721;SDS011;10522;52.198;9.890;2022-12-18T11:35:47;5.70;;;2.50;;
20721;SDS011;10522;52.198;9.890;2022-12-18T11:40:53;5.00;;;2.60;;
20721;SDS011;10522;52.198;9.890;2022-12-18T11:43:27;3.83;;;2.20;;
20721;SDS011;10522;52.198;9.890;2022-12-18T11:45:59;2.73;;;1.93;;
20721;SDS011;10522;52.198;9.890;2022-12-18T11:48:52;3.90;;;2.23;;
20721;SDS011;10522;52.198;9.890;2022-12-18T11:51:38;7.57;;;2.50;;
20721;SDS011;10522;52.198;9.890;2022-12-18T11:54:13;4.60;;;2.40;;
20721;SDS011;10522;52.198;9.890;2022-12-18T11:56:48;4.47;;;2.17;;
20721;SDS011;10522;52.198;9.890;2022-12-18T12:01:46;6.03;;;2.93;;
20721;SDS011;10522;52.198;9.890;2022-12-18T12:07:42;6.20;;;3.20;;
20721;SDS011;10522;52.198;9.890;2022-12-18T12:13:20;6.60;;;2.90;;
20721;SDS011;10522;52.198;9.890;2022-12-18T12:18:49;7.60;;;3.03;;
20721;SDS011;10522;52.198;9.890;2022-12-18T12:21:41;4.93;;;2.90;;
20721;SDS011;10522;52.198;9.890;2022-12-18T12:26:46;5.50;;;3.03;;
20721;SDS011;10522;52.198;9.890;2022-12-18T12:29:37;6.50;;;3.30;;
20721;SDS011;10522;52.198;9.890;2022-12-18T12:34:50;8.27;;;3.07;;
20721;SDS011;10522;52.198;9.890;2022-12-18T12:37:25;5.40;;;3.43;;
20721;SDS011;10522;52.198;9.890;2022-12-18T12:40:04;5.63;;;2.77;;
20721;SDS011;10522;52.198;9.890;2022-12-18T12:42:41;5.13;;;2.60;;
20721;SDS011;10522;52.198;9.890;2022-12-18T12:45:41;7.80;;;2.77;;
20721;SDS011;10522;52.198;9.890;2022-12-18T12:48:16;4.40;;;2.60;;
20721;SDS011;10522;52.198;9.890;2022-12-18T12:51:04;7.67;;;3.50;;
20721;SDS011;10522;52.198;9.890;2022-12-18T12:53:44;5.93;;;3.57;;
20721;SDS011;10522;52.198;9.890;2022-12-18T12:56:11;6.33;;;3.70;;
20721;SDS011;10522;52.198;9.890;2022-12-18T13:02:15;5.57;;;3.70;;
20721;SDS011;10522;52.198;9.890;2022-12-18T13:04:49;12.37;;;4.80;;
20721;SDS011;10522;52.198;9.890;2022-12-18T13:07:39;9.07;;;4.77;;
20721;SDS011;10522;52.198;9.890;2022-12-18T13:13:30;8.37;;;4.97;;
20721;SDS011;10522;52.198;9.890;2022-12-18T13:15:41;13.60;;;6.17;;
20721;SDS011;10522;52.198;9.890;2022-12-18T13:18:27;18.07;;;6.50;;
20721;SDS011;10522;52.198;9.890;2022-12-18T13:25:57;18.73;;;8.20;;
20721;SDS011;10522;52.198;9.890;2022-12-18T13:34:22;16.53;;;8.00;;
20721;SDS011;10522;52.198;9.890;2022-12-18T13:36:49;17.07;;;9.43;;
20721;SDS011;10522;52.198;9.890;2022-12-18T13:41:48;16.00;;;8.77;;
20721;SDS011;10522;52.198;9.890;2022-12-18T13:46:55;18.63;;;8.43;;
20721;SDS011;10522;52.198;9.890;2022-12-18T13:51:55;13.33;;;7.03;;
20721;SDS011;10522;52.198;9.890;2022-12-18T13:54:37;13.97;;;7.40;;
20721;SDS011;10522;52.198;9.890;2022-12-18T13:57:05;16.87;;;8.40;;
20721;SDS011;10522;52.198;9.890;2022-12-18T13:59:50;18.13;;;8.73;;
20721;SDS011;10522;52.198;9.890;2022-12-18T14:02:18;17.27;;;8.70;;
20721;SDS011;10522;52.198;9.890;2022-12-18T14:04:47;18.43;;;9.70;;
20721;SDS011;10522;52.198;9.890;2022-12-18T14:07:14;19.60;;;9.87;;
20721;SDS011;10522;52.198;9.890;2022-12-18T14:09:47;21.90;;;9.87;;
20721;SDS011;10522;52.198;9.890;2022-12-18T14:12:16;17.50;;;9.70;;
20721;SDS011;10522;52.198;9.890;2022-12-18T14:15:01;19.33;;;10.10;;
20721;SDS011;10522;52.198;9.890;2022-12-18T14:17:27;17.87;;;9.23;;
20721;SDS011;10522;52.198;9.890;2022-12-18T14:19:53;18.37;;;10.80;;
20721;SDS011;10522;52.198;9.890;2022-12-18T14:22:20;19.83;;;9.90;;
20721;SDS011;10522;52.198;9.890;2022-12-18T14:27:42;22.97;;;11.50;;
20721;SDS011;10522;52.198;9.890;2022-12-18T14:35:36;22.13;;;11.27;;
20721;SDS011;10522;52.198;9.890;2022-12-18T14:38:21;21.03;;;11.67;;
20721;SDS011;10522;52.198;9.890;2022-12-18T14:40:52;24.60;;;11.07;;
20721;SDS011;10522;52.198;9.890;2022-12-18T14:43:19;22.70;;;10.83;;
20721;SDS011;10522;52.198;9.890;2022-12-18T14:45:46;19.47;;;10.13;;
20721;SDS011;10522;52.198;9.890;2022-12-18T14:51:03;20.67;;;10.83;;
20721;SDS011;10522;52.198;9.890;2022-12-18T14:53:39;20.37;;;10.77;;
20721;SDS011;10522;52.198;9.890;2022-12-18T14:58:45;17.30;;;9.00;;
20721;SDS011;10522;52.198;9.890;2022-12-18T15:01:24;15.53;;;8.17;;
20721;SDS011;10522;52.198;9.890;2022-12-18T15:03:55;21.83;;;9.80;;
20721;SDS011;10522;52.198;9.890;2022-12-18T15:09:00;16.77;;;9.30;;
20721;SDS011;10522;52.198;9.890;2022-12-18T15:14:22;20.67;;;10.77;;
20721;SDS011;10522;52.198;9.890;2022-12-18T15:16:53;22.83;;;11.93;;
20721;SDS011;10522;52.198;9.890;2022-12-18T15:19:20;23.90;;;12.13;;
20721;SDS011;10522;52.198;9.890;2022-12-18T15:21:48;20.43;;;10.30;;
20721;SDS011;10522;52.198;9.890;2022-12-18T15:24:16;18.70;;;9.90;;
20721;SDS011;10522;52.198;9.890;2022-12-18T15:26:45;19.50;;;10.00;;
20721;SDS011;10522;52.198;9.890;2022-12-18T15:29:20;17.57;;;8.90;;
20721;SDS011;10522;52.198;9.890;2022-12-18T15:31:58;21.83;;;10.50;;
20721;SDS011;10522;52.198;9.890;2022-12-18T15:34:25;19.43;;;11.30;;
20721;SDS011;10522;52.198;9.890;2022-12-18T15:36:52;21.13;;;11.27;;
20721;SDS011;10522;52.198;9.890;2022-12-18T15:39:18;18.17;;;11.60;;
20721;SDS011;10522;52.198;9.890;2022-12-18T15:41:43;21.50;;;11.30;;
20721;SDS011;10522;52.198;9.890;2022-12-18T15:44:29;14.37;;;9.40;;
20721;SDS011;10522;52.198;9.890;2022-12-18T15:46:55;13.63;;;8.40;;
20721;SDS011;10522;52.198;9.890;2022-12-18T15:49:20;18.33;;;9.57;;
20721;SDS011;10522;52.198;9.890;2022-12-18T15:51:48;19.73;;;9.73;;
20721;SDS011;10522;52.198;9.890;2022-12-18T15:54:18;21.43;;;9.63;;
20721;SDS011;10522;52.198;9.890;2022-12-18T15:57:11;19.83;;;10.43;;
20721;SDS011;10522;52.198;9.890;2022-12-18T15:59:53;20.63;;;10.93;;
20721;SDS011;10522;52.198;9.890;2022-12-18T16:02:21;17.23;;;10.47;;
20721;SDS011;10522;52.198;9.890;2022-12-18T16:04:47;20.13;;;10.20;;
20721;SDS011;10522;52.198;9.890;2022-12-18T16:07:13;17.37;;;9.33;;
20721;SDS011;10522;52.198;9.890;2022-12-18T16:09:39;18.73;;;10.47;;
20721;SDS011;10522;52.198;9.890;2022-12-18T16:12:15;18.40;;;10.07;;
20721;SDS011;10522;52.198;9.890;2022-12-18T16:14:44;20.37;;;11.37;;
20721;SDS011;10522;52.198;9.890;2022-12-18T16:17:11;19.10;;;10.00;;
20721;SDS011;10522;52.198;9.890;2022-12-18T16:19:37;20.13;;;10.53;;
20721;SDS011;10522;52.198;9.890;2022-12-18T16:22:03;20.70;;;10.63;;
20721;SDS011;10522;52.198;9.890;2022-12-18T16:24:30;22.53;;;11.90;;
20721;SDS011;10522;52.198;9.890;2022-12-18T16:26:58;24.37;;;11.53;;
20721;SDS011;10522;52.198;9.890;2022-12-18T16:29:26;20.40;;;10.77;;
20721;SDS011;10522;52.198;9.890;2022-12-18T16:31:52;20.43;;;11.03;;
20721;SDS011;10522;52.198;9.890;2022-12-18T16:34:23;28.20;;;12.50;;
20721;SDS011;10522;52.198;9.890;2022-12-18T16:36:57;21.73;;;11.67;;
20721;SDS011;10522;52.198;9.890;2022-12-18T16:39:24;21.37;;;11.23;;
20721;SDS011;10522;52.198;9.890;2022-12-18T16:41:51;22.00;;;11.37;;
20721;SDS011;10522;52.198;9.890;2022-12-18T16:44:16;23.37;;;11.77;;
20721;SDS011;10522;52.198;9.890;2022-12-18T16:46:43;22.37;;;11.83;;
20721;SDS011;10522;52.198;9.890;2022-12-18T16:49:10;22.00;;;12.13;;
20721;SDS011;10522;52.198;9.890;2022-12-18T16:51:41;20.77;;;11.70;;
20721;SDS011;10522;52.198;9.890;2022-12-18T16:54:06;26.20;;;12.80;;